Time;durP1;ratioP1;P1;durP2;ratioP2;P2;SDS_P1;SDS_P2;PMS_P1;PMS_P2;Temp;Humidity;BMP_temperature;BMP_pressure;BME280_temperature;BME280_humidity;BME280_pressure;Samples;Min_cycle;Max_cycle;Signal;HPM_P1;HPM_P2
2022/01/31 00:01:32;;;;;;;0.20;0.10;;;;;;;1.83;100.00;100746.91;5033166;28;20487;-53
2022/01/31 00:03:59;;;;;;;0.30;0.30;;;;;;;2.07;100.00;100749.00;5033343;28;20447;-53
2022/01/31 00:06:26;;;;;;;0.20;0.10;;;;;;;2.22;100.00;100743.94;5033108;28;20451;-53
2022/01/31 00:08:52;;;;;;;0.20;0.10;;;;;;;2.05;100.00;100724.47;5032918;28;20467;-53
2022/01/31 00:11:19;;;;;;;0.50;0.50;;;;;;;1.86;100.00;100715.50;5033236;28;20475;-52
2022/01/31 00:13:57;;;;;;;0.20;0.10;;;;;;;1.95;100.00;100709.50;5033019;28;20479;-53
2022/01/31 00:16:30;;;;;;;0.20;0.10;;;;;;;1.99;100.00;100696.47;5032783;28;20474;-53
2022/01/31 00:18:58;;;;;;;0.20;0.10;;;;;;;1.94;100.00;100695.53;5032859;28;20828;-53
2022/01/31 00:21:25;;;;;;;0.20;0.10;;;;;;;2.00;100.00;100681.59;5032589;28;20567;-53
2022/01/31 00:23:52;;;;;;;0.20;0.10;;;;;;;2.10;100.00;100683.50;5032968;28;20525;-52
2022/01/31 00:26:19;;;;;;;0.20;0.10;;;;;;;2.12;100.00;100678.25;5032600;28;20451;-53
2022/01/31 00:28:45;;;;;;;0.30;0.20;;;;;;;2.31;100.00;100662.75;5032632;28;20503;-53
2022/01/31 00:31:12;;;;;;;0.20;0.10;;;;;;;2.34;100.00;100648.81;5032801;28;20483;-53
2022/01/31 00:33:38;;;;;;;0.20;0.10;;;;;;;2.23;100.00;100632.94;5032802;28;20448;-53
2022/01/31 00:36:05;;;;;;;2.20;1.03;;;;;;;2.24;100.00;100616.34;5032386;28;20448;-53
2022/01/31 00:38:32;;;;;;;0.20;0.10;;;;;;;1.99;100.00;100609.06;5032495;28;20510;-52
2022/01/31 00:40:58;;;;;;;0.20;0.10;;;;;;;2.18;100.00;100590.03;5032327;28;20842;-53
2022/01/31 00:43:25;;;;;;;0.20;0.20;;;;;;;2.06;100.00;100572.47;5032503;28;21031;-53
2022/01/31 00:46:01;;;;;;;0.20;0.10;;;;;;;1.92;100.00;100526.91;5045833;28;20455;-53
2022/01/31 00:48:29;;;;;;;0.20;0.10;;;;;;;1.97;100.00;100525.19;5032272;28;20545;-52
2022/01/31 00:50:56;;;;;;;0.20;0.10;;;;;;;2.22;100.00;100518.44;5032673;28;20544;-52
2022/01/31 00:53:23;;;;;;;0.20;0.10;;;;;;;2.33;100.00;100510.63;5027312;28;20479;-52
2022/01/31 00:55:49;;;;;;;0.20;0.13;;;;;;;2.31;100.00;100488.75;5032313;28;20451;-53
2022/01/31 00:58:16;;;;;;;0.20;0.10;;;;;;;2.25;100.00;100493.97;5032309;28;20447;-53
2022/01/31 01:00:42;;;;;;;0.20;0.10;;;;;;;2.45;100.00;100492.38;5032383;28;21015;-53
2022/01/31 01:03:10;;;;;;;0.20;0.10;;;;;;;2.50;100.00;100479.31;5032502;28;20455;-53
2022/01/31 01:05:36;;;;;;;0.20;0.10;;;;;;;2.40;100.00;100459.13;5036352;28;20490;-52
2022/01/31 01:08:03;;;;;;;0.20;0.10;;;;;;;2.39;100.00;100445.13;5036141;28;20463;-53
2022/01/31 01:10:30;;;;;;;0.20;0.10;;;;;;;2.47;100.00;100435.56;5036604;28;20451;-53
2022/01/31 01:12:57;;;;;;;0.20;0.10;;;;;;;2.61;100.00;100420.78;5036283;28;20448;-53
2022/01/31 01:15:23;;;;;;;0.20;0.10;;;;;;;2.55;100.00;100414.63;5036309;28;20447;-53
2022/01/31 01:17:50;;;;;;;0.20;0.20;;;;;;;2.60;100.00;100400.69;5035926;28;20957;-53
2022/01/31 01:20:17;;;;;;;0.20;0.10;;;;;;;2.75;100.00;100396.38;5036065;28;21019;-53
2022/01/31 01:22:45;;;;;;;0.20;0.10;;;;;;;2.84;100.00;100396.41;5036097;28;20521;-52
2022/01/31 01:25:13;;;;;;;0.20;0.10;;;;;;;2.91;100.00;100375.44;5036168;28;20451;-53
2022/01/31 01:27:42;;;;;;;0.20;0.10;;;;;;;2.98;100.00;100358.81;5035872;28;20448;-53
2022/01/31 01:30:14;;;;;;;0.20;0.20;;;;;;;3.02;100.00;100356.22;5035891;28;20980;-53
2022/01/31 01:32:58;;;;;;;0.20;0.10;;;;;;;3.10;100.00;100334.34;5036115;28;20447;-53
2022/01/31 01:35:29;;;;;;;0.20;0.10;;;;;;;3.28;100.00;100333.50;5035894;28;20924;-53
2022/01/31 01:37:55;;;;;;;0.20;0.10;;;;;;;3.48;100.00;100333.53;5035975;28;20876;-53
2022/01/31 01:40:22;;;;;;;0.20;0.10;;;;;;;3.49;99.95;100338.78;5035393;28;20527;-53
2022/01/31 01:42:49;;;;;;;0.20;0.20;;;;;;;3.56;99.54;100330.06;5036741;28;20490;-54
2022/01/31 01:45:15;;;;;;;0.20;0.10;;;;;;;3.60;98.85;100307.28;5036045;28;20494;-54
2022/01/31 01:47:42;;;;;;;0.20;0.10;;;;;;;3.46;99.86;100281.00;5035920;28;20475;-54
2022/01/31 01:50:09;;;;;;;0.20;0.10;;;;;;;3.69;98.61;100270.44;5035572;28;20498;-53
2022/01/31 01:52:35;;;;;;;0.20;0.10;;;;;;;3.72;98.47;100259.09;5032281;28;20495;-53
2022/01/31 01:55:02;;;;;;;0.20;0.10;;;;;;;3.83;98.79;100252.03;5034310;28;20514;-54
2022/01/31 01:57:29;;;;;;;0.20;0.10;;;;;;;3.87;97.88;100264.31;5035489;28;20451;-53
2022/01/31 01:59:57;;;;;;;0.20;0.10;;;;;;;4.04;97.15;100256.38;5035393;28;20501;-54
2022/01/31 02:02:23;;;;;;;0.20;0.10;;;;;;;3.89;97.43;100241.53;5035612;28;20880;-53
2022/01/31 02:04:51;;;;;;;0.20;0.10;;;;;;;4.00;97.49;100238.88;5035365;28;20452;-54
2022/01/31 02:07:19;;;;;;;0.20;0.10;;;;;;;4.09;97.26;100210.75;5035934;28;20459;-50
2022/01/31 02:09:53;;;;;;;0.20;0.10;;;;;;;4.07;96.56;100188.84;5035074;28;20475;-50
2022/01/31 02:12:19;;;;;;;0.20;0.10;;;;;;;4.28;95.40;100190.53;5035294;28;20518;-51
2022/01/31 02:14:46;;;;;;;0.20;0.10;;;;;;;4.26;95.58;100180.91;5035176;28;20976;-50
2022/01/31 02:17:13;;;;;;;0.20;0.10;;;;;;;4.21;96.51;100148.47;5035375;28;20816;-50
2022/01/31 02:19:39;;;;;;;0.20;0.10;;;;;;;4.29;95.72;100136.16;5035100;28;20889;-50
2022/01/31 02:22:06;;;;;;;0.20;0.10;;;;;;;4.35;95.90;100125.59;5035045;28;20931;-50
2022/01/31 02:24:33;;;;;;;0.20;0.10;;;;;;;4.35;95.58;100123.84;5034950;28;20490;-50
2022/01/31 02:27:03;;;;;;;0.20;0.10;;;;;;;4.43;95.38;100108.88;5035457;28;20483;-51
2022/01/31 02:29:30;;;;;;;0.20;0.10;;;;;;;4.55;94.49;100088.63;5034685;28;21008;-50
2022/01/31 02:31:57;;;;;;;0.20;0.10;;;;;;;4.78;93.83;100102.47;5034872;28;20515;-50
2022/01/31 02:34:23;;;;;;;0.20;0.10;;;;;;;4.75;94.08;100120.94;5034311;28;20977;-50
2022/01/31 02:36:50;;;;;;;0.20;0.10;;;;;;;4.73;93.90;100120.06;5034370;28;20487;-50
2022/01/31 02:39:16;;;;;;;0.77;0.77;;;;;;;4.80;92.77;100131.41;5034112;28;20999;-50
2022/01/31 02:41:45;;;;;;;0.20;0.10;;;;;;;4.58;93.89;100154.41;5034507;28;20538;-50
2022/01/31 02:44:16;;;;;;;0.20;0.10;;;;;;;4.51;94.67;100123.72;5021570;28;20486;-50
2022/01/31 02:46:52;;;;;;;0.20;0.10;;;;;;;4.63;94.05;100128.91;5034328;28;20451;-50
2022/01/31 02:49:23;;;;;;;0.20;0.10;;;;;;;4.75;94.11;100127.06;5034064;28;20956;-51
2022/01/31 02:51:56;;;;;;;0.20;0.10;;;;;;;4.66;93.89;100119.25;5034373;28;20447;-50
2022/01/31 02:54:24;;;;;;;0.20;0.10;;;;;;;4.91;93.66;100113.78;5034437;28;20448;-50
2022/01/31 02:56:52;;;;;;;0.20;0.10;;;;;;;4.90;93.59;100099.72;5034439;28;20490;-50
2022/01/31 02:59:18;;;;;;;0.20;0.10;;;;;;;4.93;92.21;100090.94;5034292;28;20467;-51
2022/01/31 03:01:45;;;;;;;0.20;0.10;;;;;;;5.11;92.75;100074.97;5034073;28;20519;-50
2022/01/31 03:04:12;;;;;;;0.57;0.57;;;;;;;4.99;91.91;100069.81;5034393;28;20827;-50
2022/01/31 03:06:42;;;;;;;0.20;0.10;;;;;;;5.18;92.52;100060.84;5034221;28;20475;-50
2022/01/31 03:09:12;;;;;;;0.20;0.10;;;;;;;5.09;92.14;100047.78;5017056;28;20503;-51
2022/01/31 03:11:38;;;;;;;0.20;0.10;;;;;;;5.10;91.28;100046.88;5034027;28;20937;-50
2022/01/31 03:14:05;;;;;;;0.20;0.20;;;;;;;5.26;92.25;100034.41;5034463;28;20498;-50
2022/01/31 03:16:33;;;;;;;0.20;0.10;;;;;;;5.24;92.15;100025.66;5034107;28;20476;-51
2022/01/31 03:19:00;;;;;;;0.20;0.10;;;;;;;5.22;92.13;100012.50;5034168;28;20482;-50
2022/01/31 03:21:27;;;;;;;0.20;0.10;;;;;;;5.16;92.05;100003.78;5033971;28;20523;-51
2022/01/31 03:23:53;;;;;;;0.20;0.10;;;;;;;5.26;91.70;99994.88;5033875;28;20886;-50
2022/01/31 03:26:20;;;;;;;0.20;0.13;;;;;;;5.12;91.66;99984.50;5033091;28;20987;-50
2022/01/31 03:28:49;;;;;;;0.20;0.10;;;;;;;5.22;91.82;99972.97;5033732;28;21003;-51
2022/01/31 03:31:18;;;;;;;0.20;0.10;;;;;;;5.11;91.84;99953.78;5020359;28;20957;-50
2022/01/31 03:33:46;;;;;;;0.20;0.10;;;;;;;5.05;92.54;99948.59;5033577;28;20454;-50
2022/01/31 03:36:13;;;;;;;0.20;0.10;;;;;;;5.12;92.40;99931.81;5033491;28;20486;-50
2022/01/31 03:38:42;;;;;;;0.20;0.10;;;;;;;5.42;91.12;99912.09;5033309;28;20472;-51
2022/01/31 03:41:15;;;;;;;0.20;0.20;;;;;;;5.26;91.64;99913.22;5033347;28;20557;-51
2022/01/31 03:43:42;;;;;;;0.23;0.17;;;;;;;5.08;92.24;99916.97;5033108;28;20444;-50
2022/01/31 03:46:09;;;;;;;0.20;0.10;;;;;;;5.17;92.79;99901.00;5033312;28;20452;-51
2022/01/31 03:48:36;;;;;;;0.20;0.10;;;;;;;5.28;91.89;99887.72;5032623;28;21054;-50
2022/01/31 03:51:04;;;;;;;0.20;0.10;;;;;;;5.22;92.23;99878.13;5033241;28;20983;-51
2022/01/31 03:53:31;;;;;;;0.20;0.10;;;;;;;5.26;92.65;99860.50;5033259;28;20472;-50
2022/01/31 03:55:57;;;;;;;0.20;0.10;;;;;;;5.23;92.79;99852.66;5033181;28;20883;-50
2022/01/31 03:58:24;;;;;;;0.20;0.10;;;;;;;5.06;93.30;99839.69;5032961;28;20498;-50
2022/01/31 04:00:51;;;;;;;0.20;0.10;;;;;;;5.12;93.42;99836.13;5033258;28;20531;-50
2022/01/31 04:03:18;;;;;;;0.20;0.20;;;;;;;5.09;92.92;99834.41;5032991;28;20460;-50
2022/01/31 04:05:45;;;;;;;0.20;0.10;;;;;;;5.11;93.75;99816.81;5033482;28;20478;-50
2022/01/31 04:08:14;;;;;;;0.20;0.10;;;;;;;5.12;92.92;99807.16;5032963;28;20447;-50
2022/01/31 04:10:41;;;;;;;0.20;0.10;;;;;;;5.17;93.12;99798.28;5032820;28;20444;-50
2022/01/31 04:13:07;;;;;;;0.20;0.10;;;;;;;5.20;93.33;99797.34;5033014;28;20463;-50
2022/01/31 04:15:35;;;;;;;0.20;0.10;;;;;;;5.12;93.58;99789.59;5033178;28;20447;-50
2022/01/31 04:18:03;;;;;;;0.20;0.10;;;;;;;5.27;94.00;99780.56;5032756;28;20452;-50
2022/01/31 04:20:29;;;;;;;0.20;0.10;;;;;;;5.31;92.31;99775.22;5032862;28;20448;-50
2022/01/31 04:23:01;;;;;;;0.20;0.10;;;;;;;5.35;92.36;99776.94;5030616;28;20494;-50
2022/01/31 04:28:31;;;;;;;0.20;0.20;;;;;;;5.37;93.28;99749.69;5020548;28;20886;-50
2022/01/31 04:31:49;;;;;;;0.20;0.10;;;;;;;5.25;93.73;99753.38;5032747;28;20447;-50
2022/01/31 04:33:48;;;;;;;0.20;0.10;;;;;;;5.46;93.24;99760.06;5025310;28;20979;-51
2022/01/31 04:36:15;;;;;;;0.20;0.10;;;;;;;5.45;95.12;99745.16;5032723;28;20451;-52
2022/01/31 04:38:46;;;;;;;0.20;0.13;;;;;;;5.30;97.77;99722.56;5032218;28;20887;-52
2022/01/31 04:41:13;;;;;;;0.20;0.10;;;;;;;5.34;99.29;99735.69;5032652;28;20534;-51
2022/01/31 04:43:41;;;;;;;0.20;0.10;;;;;;;5.21;100.00;99735.91;5032495;28;20451;-51
2022/01/31 04:46:09;;;;;;;0.20;0.10;;;;;;;5.39;100.00;99730.31;5032309;28;21006;-52
2022/01/31 04:48:37;;;;;;;0.20;0.10;;;;;;;5.17;100.00;99710.47;5032091;28;20477;-51
2022/01/31 04:51:03;;;;;;;0.20;0.10;;;;;;;5.14;100.00;99710.53;5032273;28;20483;-51
2022/01/31 04:53:30;;;;;;;0.20;0.10;;;;;;;5.00;100.00;99703.72;5032830;28;20479;-51
2022/01/31 04:55:57;;;;;;;0.20;0.10;;;;;;;4.91;100.00;99705.59;5032396;28;20488;-51
2022/01/31 04:58:23;;;;;;;0.20;0.10;;;;;;;4.92;100.00;99699.44;5032281;28;20483;-51
2022/01/31 05:00:50;;;;;;;0.20;0.10;;;;;;;4.83;100.00;99692.56;5032357;28;20487;-52
2022/01/31 05:03:19;;;;;;;0.20;0.10;;;;;;;4.87;100.00;99678.47;5032352;28;20501;-51
2022/01/31 05:05:46;;;;;;;0.20;0.10;;;;;;;4.87;100.00;99681.09;5032473;28;20447;-51
2022/01/31 05:08:14;;;;;;;0.20;0.10;;;;;;;4.80;100.00;99673.28;5032201;28;20458;-51
2022/01/31 05:10:46;;;;;;;0.20;0.10;;;;;;;4.86;100.00;99668.81;5032373;28;20975;-51
2022/01/31 05:13:14;;;;;;;0.20;0.10;;;;;;;4.61;100.00;99673.59;5031952;28;20476;-51
2022/01/31 05:15:42;;;;;;;0.20;0.10;;;;;;;4.71;100.00;99663.78;5032267;28;20487;-51
2022/01/31 05:18:09;;;;;;;0.20;0.10;;;;;;;4.77;100.00;99663.69;5032095;28;20454;-52
2022/01/31 05:20:36;;;;;;;0.20;0.10;;;;;;;4.67;100.00;99652.44;5032206;28;20486;-51
2022/01/31 05:23:07;;;;;;;0.20;0.10;;;;;;;4.72;100.00;99657.63;5032140;28;20491;-51
2022/01/31 05:25:34;;;;;;;0.20;0.13;;;;;;;4.61;100.00;99659.56;5032177;28;20455;-51
2022/01/31 05:28:02;;;;;;;0.20;0.10;;;;;;;4.70;100.00;99669.97;5032269;28;20854;-51
2022/01/31 05:30:29;;;;;;;0.20;0.10;;;;;;;4.69;100.00;99655.94;5032066;28;20451;-51
2022/01/31 05:32:56;;;;;;;0.20;0.10;;;;;;;4.69;100.00;99652.44;5032211;28;20448;-51
2022/01/31 05:35:23;;;;;;;0.77;0.77;;;;;;;4.76;100.00;99643.53;5031946;28;20447;-51
2022/01/31 05:37:49;;;;;;;0.20;0.10;;;;;;;4.78;100.00;99635.59;5032044;28;20447;-51
2022/01/31 05:40:16;;;;;;;0.20;0.10;;;;;;;4.75;100.00;99640.03;5031625;28;20482;-51
2022/01/31 05:42:42;;;;;;;0.20;0.10;;;;;;;4.83;100.00;99644.31;5032168;28;20533;-51
2022/01/31 05:45:09;;;;;;;0.20;0.10;;;;;;;4.72;100.00;99644.47;5031816;28;20447;-51
2022/01/31 05:47:37;;;;;;;0.20;0.10;;;;;;;4.64;100.00;99638.44;5032110;28;20478;-51
2022/01/31 05:50:04;;;;;;;0.20;0.10;;;;;;;4.77;100.00;99634.72;5033727;28;20522;-51
2022/01/31 05:52:32;;;;;;;0.20;0.10;;;;;;;4.78;100.00;99633.84;5035632;28;20460;-51
2022/01/31 05:54:59;;;;;;;0.20;0.10;;;;;;;4.71;100.00;99645.38;5035385;28;20475;-51
2022/01/31 05:57:26;;;;;;;0.20;0.10;;;;;;;4.75;100.00;99639.16;5035638;28;20447;-51
2022/01/31 05:59:53;;;;;;;0.20;0.10;;;;;;;4.77;100.00;99650.53;5035408;28;20625;-51
2022/01/31 06:02:19;;;;;;;0.20;0.10;;;;;;;4.63;100.00;99640.22;5035280;28;20539;-51
2022/01/31 06:04:46;;;;;;;0.20;0.10;;;;;;;4.85;100.00;99637.25;5035316;28;20463;-51
2022/01/31 06:07:13;;;;;;;0.20;0.10;;;;;;;4.74;100.00;99632.16;5035245;28;20948;-51
2022/01/31 06:09:39;;;;;;;0.20;0.10;;;;;;;4.71;100.00;99640.09;5035402;28;20503;-51
2022/01/31 06:12:07;;;;;;;0.20;0.10;;;;;;;4.70;100.00;99638.38;5035624;28;20494;-51
2022/01/31 06:14:34;;;;;;;0.20;0.10;;;;;;;4.74;100.00;99633.03;5035177;28;20482;-51
2022/01/31 06:17:01;;;;;;;0.20;0.10;;;;;;;4.72;100.00;99629.53;5035321;28;20506;-51
2022/01/31 06:19:29;;;;;;;0.20;0.10;;;;;;;4.73;100.00;99644.44;5034991;28;20472;-51
2022/01/31 06:21:56;;;;;;;0.20;0.10;;;;;;;4.82;100.00;99629.41;5034872;28;20483;-51
2022/01/31 06:24:22;;;;;;;0.20;0.10;;;;;;;4.99;100.00;99620.34;5035054;28;20486;-51
2022/01/31 06:26:49;;;;;;;0.20;0.10;;;;;;;4.91;100.00;99621.34;5035039;28;20487;-51
2022/01/31 06:29:16;;;;;;;0.20;0.10;;;;;;;4.92;100.00;99620.44;5034749;28;21031;-51
2022/01/31 06:31:42;;;;;;;0.20;0.10;;;;;;;4.73;100.00;99626.03;5034985;28;20487;-51
2022/01/31 06:34:09;;;;;;;0.20;0.10;;;;;;;4.79;100.00;99621.53;5017348;28;20531;-51
2022/01/31 06:36:36;;;;;;;0.20;0.10;;;;;;;4.74;100.00;99626.88;5034792;28;20486;-51
2022/01/31 06:39:03;;;;;;;0.20;0.10;;;;;;;4.89;100.00;99628.41;5034741;28;20479;-51
2022/01/31 06:41:29;;;;;;;0.20;0.10;;;;;;;4.90;100.00;99641.53;5036483;28;20530;-51
2022/01/31 06:43:56;;;;;;;0.20;0.10;;;;;;;4.85;100.00;99626.72;5022555;28;20497;-51
2022/01/31 06:46:23;;;;;;;0.20;0.10;;;;;;;4.85;100.00;99638.13;5044189;28;20452;-51
2022/01/31 06:48:50;;;;;;;0.20;0.10;;;;;;;4.95;100.00;99633.59;5034254;28;20467;-51
2022/01/31 06:51:17;;;;;;;0.20;0.10;;;;;;;5.13;100.00;99627.13;5034492;28;20484;-51
2022/01/31 06:53:48;;;;;;;0.20;0.10;;;;;;;4.94;100.00;99619.56;5034767;28;20827;-51
2022/01/31 06:56:16;;;;;;;0.20;0.10;;;;;;;5.04;100.00;99618.47;5034618;28;20513;-51
2022/01/31 06:58:43;;;;;;;0.33;0.30;;;;;;;5.00;100.00;99624.72;5034321;28;20468;-51
2022/01/31 07:01:10;;;;;;;0.20;0.10;;;;;;;5.01;100.00;99622.94;5033312;28;20448;-51
2022/01/31 07:03:37;;;;;;;0.20;0.10;;;;;;;4.99;100.00;99622.97;5034111;28;20448;-51
2022/01/31 07:06:04;;;;;;;0.20;0.10;;;;;;;5.06;100.00;99602.66;5034422;28;20540;-53
2022/01/31 07:08:31;;;;;;;0.20;0.10;;;;;;;5.09;100.00;99614.91;5034169;28;20471;-51
2022/01/31 07:10:57;;;;;;;0.20;0.20;;;;;;;5.04;100.00;99618.47;5034486;28;20494;-51
2022/01/31 07:13:35;;;;;;;0.20;0.20;;;;;;;5.08;100.00;99629.00;5033947;28;20988;-51
2022/01/31 07:16:03;;;;;;;0.20;0.10;;;;;;;4.97;100.00;99622.13;5034025;28;20879;-51
2022/01/31 07:18:32;;;;;;;0.20;0.10;;;;;;;5.19;100.00;99630.50;5034220;28;20529;-51
2022/01/31 07:20:59;;;;;;;0.20;0.10;;;;;;;5.04;100.00;99636.91;5034103;28;20488;-51
2022/01/31 07:23:39;;;;;;;0.20;0.10;;;;;;;5.02;100.00;99625.53;5033848;28;21011;-51
2022/01/31 07:26:06;;;;;;;0.20;0.10;;;;;;;5.16;100.00;99629.72;5033775;28;20452;-51
2022/01/31 07:28:32;;;;;;;0.20;0.10;;;;;;;5.20;100.00;99615.56;5033635;28;20499;-51
2022/01/31 07:31:00;;;;;;;0.20;0.10;;;;;;;5.24;100.00;99615.53;5033926;28;20455;-51
2022/01/31 07:33:27;;;;;;;0.20;0.10;;;;;;;5.21;100.00;99617.34;5033854;28;20458;-51
2022/01/31 07:35:54;;;;;;;0.20;0.10;;;;;;;5.17;100.00;99619.13;5033699;28;20456;-51
2022/01/31 07:38:21;;;;;;;0.20;0.10;;;;;;;5.30;100.00;99603.97;5033774;28;20483;-51
2022/01/31 07:40:51;;;;;;;0.20;0.10;;;;;;;5.32;100.00;99608.31;5033546;28;20517;-50
2022/01/31 07:43:17;;;;;;;0.20;0.10;;;;;;;5.42;100.00;99606.41;5033453;28;20495;-49
2022/01/31 07:45:44;;;;;;;0.20;0.10;;;;;;;5.42;100.00;99595.84;5033644;28;20456;-49
2022/01/31 07:48:11;;;;;;;0.20;0.10;;;;;;;5.43;100.00;99594.94;5033686;28;20452;-49
2022/01/31 07:50:37;;;;;;;0.20;0.10;;;;;;;5.38;100.00;99595.94;5033176;28;20796;-50
2022/01/31 07:53:05;;;;;;;0.20;0.10;;;;;;;5.47;100.00;99604.53;5033456;28;20866;-50
2022/01/31 07:55:32;;;;;;;0.20;0.10;;;;;;;5.67;100.00;99592.75;5033243;28;20534;-51
2022/01/31 07:57:59;;;;;;;0.20;0.10;;;;;;;5.44;100.00;99598.47;5033226;28;20940;-49
2022/01/31 08:00:44;;;;;;;0.20;0.10;;;;;;;5.67;100.00;99596.25;5033244;28;20451;-53
2022/01/31 08:03:10;;;;;;;0.20;0.20;;;;;;;5.56;100.00;99601.72;5032934;28;20491;-49
2022/01/31 08:05:37;;;;;;;0.20;0.10;;;;;;;5.76;100.00;99592.56;5033033;28;20502;-50
2022/01/31 08:08:04;;;;;;;0.20;0.20;;;;;;;5.76;100.00;99590.81;5034846;28;20543;-50
2022/01/31 08:10:34;;;;;;;0.30;0.30;;;;;;;5.74;100.00;99599.63;5034022;28;20459;-51
2022/01/31 08:13:02;;;;;;;0.20;0.10;;;;;;;5.64;100.00;99605.09;5032703;28;20874;-50
2022/01/31 08:15:29;;;;;;;0.20;0.10;;;;;;;5.72;100.00;99601.41;5033562;28;20485;-49
2022/01/31 08:17:56;;;;;;;0.20;0.10;;;;;;;5.68;100.00;99608.53;5032755;28;20452;-49
2022/01/31 08:20:23;;;;;;;0.20;0.10;;;;;;;5.66;100.00;99607.69;5033160;28;20471;-50
2022/01/31 08:22:49;;;;;;;0.20;0.10;;;;;;;5.68;100.00;99605.91;5034002;28;20488;-49
2022/01/31 08:25:16;;;;;;;0.20;0.10;;;;;;;5.93;100.00;99607.16;5032684;28;21014;-50
2022/01/31 08:27:49;;;;;;;0.20;0.10;;;;;;;5.99;100.00;99600.03;5032693;28;20486;-49
2022/01/31 08:30:22;;;;;;;0.20;0.10;;;;;;;6.10;100.00;99582.19;5033004;28;20902;-49
2022/01/31 08:32:59;;;;;;;0.20;0.10;;;;;;;6.06;100.00;99575.25;5032461;28;20444;-49
2022/01/31 08:38:12;;;;;;;0.20;0.10;;;;;;;6.19;100.00;99567.03;5032467;28;20479;-49
2022/01/31 08:40:39;;;;;;;0.20;0.10;;;;;;;6.15;100.00;99567.13;5032319;28;20490;-50
2022/01/31 08:43:06;;;;;;;0.20;0.10;;;;;;;6.22;100.00;99572.25;5032344;28;20487;-50
2022/01/31 08:45:34;;;;;;;0.20;0.10;;;;;;;6.21;100.00;99573.16;5045505;28;20482;-51
2022/01/31 08:48:03;;;;;;;0.20;0.10;;;;;;;6.45;100.00;99565.56;5032501;28;20458;-50
2022/01/31 08:50:30;;;;;;;0.20;0.10;;;;;;;6.45;100.00;99563.81;5032136;28;20953;-50
2022/01/31 08:52:56;;;;;;;0.20;0.20;;;;;;;6.36;100.00;99558.72;5028961;28;20463;-50
2022/01/31 08:55:24;;;;;;;0.20;0.10;;;;;;;6.45;100.00;99555.03;5032529;28;20521;-50
2022/01/31 08:57:54;;;;;;;0.20;0.10;;;;;;;6.47;100.00;99554.06;5032400;28;20451;-51
2022/01/31 09:00:21;;;;;;;0.20;0.20;;;;;;;6.30;100.00;99558.84;5032143;28;20517;-51
2022/01/31 09:03:02;;;;;;;0.20;0.13;;;;;;;6.49;100.00;99549.63;5032444;28;20534;-49
2022/01/31 09:05:29;;;;;;;0.20;0.10;;;;;;;6.28;100.00;99560.66;5020369;28;20472;-50
2022/01/31 09:07:56;;;;;;;0.20;0.10;;;;;;;6.28;100.00;99541.31;5033357;28;20486;-50
2022/01/31 09:10:22;;;;;;;0.20;0.10;;;;;;;6.22;100.00;99548.50;5032474;28;20894;-50
2022/01/31 09:12:49;;;;;;;0.20;0.10;;;;;;;6.24;100.00;99557.25;5032078;28;20539;-50
2022/01/31 09:15:16;;;;;;;0.20;0.10;;;;;;;6.31;100.00;99546.56;5015188;28;20470;-49
2022/01/31 09:17:42;;;;;;;0.20;0.20;;;;;;;6.22;100.00;99556.41;5032351;28;20453;-50
2022/01/31 09:20:09;;;;;;;0.20;0.10;;;;;;;6.38;100.00;99550.78;5032474;28;20506;-49
2022/01/31 09:22:37;;;;;;;0.20;0.10;;;;;;;6.40;100.00;99549.81;5032578;28;20511;-50
2022/01/31 09:25:05;;;;;;;0.20;0.10;;;;;;;6.39;100.00;99536.66;5034106;28;20452;-52
2022/01/31 09:27:31;;;;;;;0.20;0.10;;;;;;;6.40;100.00;99534.00;5036087;28;20452;-50
2022/01/31 09:29:59;;;;;;;0.20;0.20;;;;;;;6.51;100.00;99542.53;5036101;28;20874;-50
2022/01/31 09:32:26;;;;;;;0.20;0.20;;;;;;;6.59;100.00;99533.56;5036155;28;20479;-50
2022/01/31 09:34:52;;;;;;;0.20;0.10;;;;;;;6.61;100.00;99543.19;5036184;28;20451;-49
2022/01/31 09:37:20;;;;;;;0.20;0.10;;;;;;;6.81;100.00;99537.38;5035845;28;20447;-50
2022/01/31 09:39:51;;;;;;;0.20;0.10;;;;;;;6.78;100.00;99555.97;5018079;28;21062;-49
2022/01/31 09:43:01;;;;;;;0.20;0.13;;;;;;;7.00;100.00;99553.66;5035988;28;20523;-50
2022/01/31 09:45:24;;;;;;;0.20;0.10;;;;;;;6.99;100.00;99554.53;5032928;28;20487;-50
2022/01/31 09:50:25;;;;;;;0.20;0.10;;;;;;;7.03;100.00;99557.06;5035561;28;21735;-50
2022/01/31 09:52:52;;;;;;;0.20;0.20;;;;;;;6.84;100.00;99554.00;5035743;28;20514;-50
2022/01/31 09:55:20;;;;;;;0.20;0.10;;;;;;;6.97;100.00;99551.06;5035528;28;20486;-50
2022/01/31 09:57:46;;;;;;;0.20;0.20;;;;;;;6.84;100.00;99553.16;5035645;28;20448;-49
2022/01/31 10:00:14;;;;;;;0.20;0.20;;;;;;;6.80;100.00;99541.81;5035380;28;20496;-50
2022/01/31 10:03:01;;;;;;;0.20;0.10;;;;;;;6.98;100.00;99547.50;5035418;28;20523;-50
2022/01/31 10:05:28;;;;;;;0.20;0.10;;;;;;;6.94;100.00;99545.88;5022688;28;20803;-50
2022/01/31 10:08:09;;;;;;;0.20;0.10;;;;;;;6.81;100.00;99537.38;5035358;28;20471;-50
2022/01/31 10:10:40;;;;;;;0.20;0.13;;;;;;;7.04;100.00;99545.59;5035512;28;20447;-50
2022/01/31 10:16:29;;;;;;;0.20;0.10;;;;;;;7.00;100.00;99546.59;5035293;28;20929;-50
2022/01/31 10:18:59;;;;;;;0.20;0.10;;;;;;;6.91;100.00;99559.16;5035174;28;20471;-50
2022/01/31 10:21:25;;;;;;;0.20;0.10;;;;;;;6.88;100.00;99540.75;5034827;28;20531;-50
2022/01/31 10:23:52;;;;;;;0.20;0.10;;;;;;;6.95;100.00;99553.75;5035257;28;20523;-49
2022/01/31 10:26:33;;;;;;;0.20;0.10;;;;;;;6.86;100.00;99537.28;5035096;28;20451;-50
2022/01/31 10:29:15;;;;;;;0.20;0.13;;;;;;;6.81;100.00;99545.31;5017350;28;20472;-50
2022/01/31 10:31:55;;;;;;;0.20;0.10;;;;;;;7.00;100.00;99541.31;5034903;28;20875;-50
2022/01/31 10:34:27;;;;;;;0.20;0.20;;;;;;;6.88;100.00;99531.06;5035199;28;20522;-50
2022/01/31 10:36:54;;;;;;;0.20;0.13;;;;;;;7.00;100.00;99541.31;5033476;28;20953;-49
2022/01/31 10:54:11;;;;;;;0.20;0.10;;;;;;;7.22;100.00;99544.22;5018888;28;20445;-51
2022/01/31 10:56:44;;;;;;;0.20;0.10;;;;;;;7.16;100.00;99540.91;5001380;28;20452;-51
2022/01/31 10:59:28;;;;;;;0.20;0.10;;;;;;;7.38;100.00;99532.31;5018628;28;20534;-51
2022/01/31 11:01:57;;;;;;;0.20;0.10;;;;;;;7.38;100.00;99531.44;5018279;28;20814;-51
2022/01/31 11:04:45;;;;;;;0.20;0.20;;;;;;;7.32;100.00;99529.84;5018586;28;20838;-51
2022/01/31 11:07:15;;;;;;;0.20;0.10;;;;;;;7.29;100.00;99547.59;5018813;28;20452;-51
2022/01/31 11:09:43;;;;;;;0.20;0.10;;;;;;;7.38;100.00;99542.03;5017965;28;20469;-50
2022/01/31 11:12:10;;;;;;;0.20;0.10;;;;;;;7.20;100.00;99539.91;5018279;28;20444;-52
2022/01/31 11:14:39;;;;;;;0.20;0.13;;;;;;;7.13;100.00;99549.78;5018547;28;20877;-51
2022/01/31 11:17:10;;;;;;;0.20;0.20;;;;;;;7.22;100.00;99548.66;5018539;28;20491;-50
2022/01/31 11:19:41;;;;;;;0.20;0.17;;;;;;;7.06;100.00;99548.19;5018081;28;20468;-51
2022/01/31 11:22:14;;;;;;;0.20;0.20;;;;;;;7.02;100.00;99538.63;5018420;28;20479;-53
2022/01/31 11:25:04;;;;;;;0.20;0.20;;;;;;;7.08;100.00;99533.16;5007000;28;20437;-51
2022/01/31 11:27:33;;;;;;;0.20;0.10;;;;;;;7.17;100.00;99534.69;5018361;28;20544;-57
2022/01/31 11:30:00;;;;;;;0.20;0.20;;;;;;;7.30;100.00;99536.97;5018022;28;20940;-51
2022/01/31 11:32:28;;;;;;;0.20;0.20;;;;;;;7.24;100.00;99537.13;5017798;28;20488;-50
2022/01/31 11:34:56;;;;;;;0.20;0.20;;;;;;;7.36;100.00;99536.78;5017724;28;20508;-51
2022/01/31 11:37:25;;;;;;;0.20;0.10;;;;;;;7.21;100.00;99539.00;5017934;28;20457;-51
2022/01/31 11:40:01;;;;;;;0.20;0.10;;;;;;;7.20;100.00;99540.75;5017843;28;20512;-51
2022/01/31 11:42:28;;;;;;;0.20;0.10;;;;;;;7.19;100.00;99539.03;5018268;28;20444;-51
2022/01/31 11:45:07;;;;;;;0.30;0.20;;;;;;;7.23;100.00;99531.88;5018599;28;20445;-51
2022/01/31 11:47:37;;;;;;;0.20;0.10;;;;;;;7.17;100.00;99532.06;5006906;28;20926;-54
2022/01/31 11:50:06;;;;;;;0.20;0.17;;;;;;;7.19;100.00;99535.53;5018492;28;20472;-51
2022/01/31 11:52:48;;;;;;;0.20;0.20;;;;;;;7.26;98.96;99535.28;5017263;28;20472;-54
2022/01/31 11:55:17;;;;;;;0.20;0.10;;;;;;;7.26;99.65;99534.44;4986597;28;20448;-52
2022/01/31 11:57:49;;;;;;;0.20;0.10;;;;;;;7.16;100.00;99517.97;5017144;28;20452;-52
2022/01/31 12:00:18;;;;;;;0.20;0.20;;;;;;;7.20;98.90;99532.84;5017399;28;20500;-51
2022/01/31 12:02:45;;;;;;;0.20;0.10;;;;;;;7.09;99.57;99534.88;5016972;28;20542;-50
2022/01/31 12:05:19;;;;;;;0.20;0.10;;;;;;;7.11;100.00;99528.66;5017297;28;20516;-50
2022/01/31 12:07:47;;;;;;;0.20;0.17;;;;;;;7.01;100.00;99528.97;4999706;28;20459;-52